B Gas Commander — 9HA2927 — position and weather

sailwx.info

Track history (hours):
 
Tides and Currents Weather Stations Pressure Air Temp Water Temp Dewpoint Dewpoint Depression Visibility Wind Speed Wind Dir Waves Ship Positions

B Gas Commander

Last reported at 2018-Feb-17 21:31 UTC. Time now 2018-Feb-20 11:55 UTC.
Position N 35°58' E 014°47'.

Length 74 m; draft 4.3 m.

Type: Tanker. MMSI: 256792000.

Date/timePositionNaut miles runAvg speedWind from/ knotsBaromVisibWave heightAir tempDewpointWater temp
2018-Feb-17 21:31N 35°58' E 014°47'0 9.6
2018-Feb-17 21:30N 35°58' E 014°47'5 0.7
2018-Feb-17 13:29N 35°52' E 014°45'0 0.0
2018-Feb-17 12:26N 35°52' E 014°45'0 0.0
2018-Feb-17 08:14N 35°52' E 014°45'0 0.0
2018-Feb-17 07:56N 35°52' E 014°45'0 0.0
2018-Feb-17 00:08N 35°52' E 014°45'0 0.0
2018-Feb-16 23:50N 35°52' E 014°45'0 0.0
2018-Feb-16 20:17N 35°52' E 014°45'0 0.0
2018-Feb-16 19:50N 35°52' E 014°45'0 0.0
2018-Feb-16 18:59N 35°52' E 014°45'0 0.0
2018-Feb-16 11:26N 35°52' E 014°45'  
2018-Feb-13 11:15N 36°09' E 014°43'3 9.8
2018-Feb-13 10:55N 36°12' E 014°40'410.0
2018-Feb-13 10:29N 36°14' E 014°36'5 9.9
2018-Feb-13 10:00N 36°17' E 014°31'5 9.4
2018-Feb-13 09:30N 36°20' E 014°27'5 9.2
2018-Feb-13 09:00N 36°23' E 014°23'11 9.1
2018-Feb-13 07:45N 36°32' E 014°13'3 9.3
2018-Feb-13 07:26N 36°34' E 014°10'4 9.5
2018-Feb-13 07:00N 36°37' E 014°07'5 9.4
2018-Feb-13 06:29N 36°40' E 014°03'273 9.9
2018-Feb-12 02:50N 38°40' E 008°53'410.1
2018-Feb-12 02:26N 38°41' E 008°48'410.1
2018-Feb-12 01:59N 38°43' E 008°42'31410.0
2018-Feb-10 18:31N 43°09' E 005°03'111.2
2018-Feb-10 18:28N 43°10' E 005°03'511.2
2018-Feb-10 18:00N 43°14' E 005°00'510.8
2018-Feb-10 17:30N 43°20' E 004°58'5 9.7
2018-Feb-10 17:00N 43°24' E 004°55'4 0.2
2018-Feb-10 01:57N 43°25' E 004°50'1 1.2
2018-Feb-10 01:30N 43°25' E 004°51'4 7.4
2018-Feb-10 01:00N 43°24' E 004°56'4 7.3
2018-Feb-10 00:30N 43°21' E 004°59'2 4.6
2018-Feb-10 00:00N 43°19' E 004°60'3 6.1
2018-Feb-09 23:30N 43°16' E 005°01'  
Track history (hours):
 
Tides and Currents Weather Stations Pressure Air Temp Water Temp Dewpoint Dewpoint Depression Visibility Wind Speed Wind Dir Waves Ship Positions

B Gas Commander

Last reported at 2018-Feb-17 21:31 UTC. Time now 2018-Feb-20 11:55 UTC.
Position N 35°58' E 014°47'.

Length 74 m; draft 4.3 m.

Type: Tanker. MMSI: 256792000.

Date/timePositionNaut miles runAvg speedWind from/ knotsBaromVisibWave heightAir tempDewpointWater temp
2018-Feb-17 21:31N 35°58' E 014°47'0 9.6
2018-Feb-17 21:30N 35°58' E 014°47'5 0.7
2018-Feb-17 13:29N 35°52' E 014°45'0 0.0
2018-Feb-17 12:26N 35°52' E 014°45'0 0.0
2018-Feb-17 08:14N 35°52' E 014°45'0 0.0
2018-Feb-17 07:56N 35°52' E 014°45'0 0.0
2018-Feb-17 00:08N 35°52' E 014°45'0 0.0
2018-Feb-16 23:50N 35°52' E 014°45'0 0.0
2018-Feb-16 20:17N 35°52' E 014°45'0 0.0
2018-Feb-16 19:50N 35°52' E 014°45'0 0.0
2018-Feb-16 18:59N 35°52' E 014°45'0 0.0
2018-Feb-16 11:26N 35°52' E 014°45'  
2018-Feb-13 11:15N 36°09' E 014°43'3 9.8
2018-Feb-13 10:55N 36°12' E 014°40'410.0
2018-Feb-13 10:29N 36°14' E 014°36'5 9.9
2018-Feb-13 10:00N 36°17' E 014°31'5 9.4
2018-Feb-13 09:30N 36°20' E 014°27'5 9.2
2018-Feb-13 09:00N 36°23' E 014°23'11 9.1
2018-Feb-13 07:45N 36°32' E 014°13'3 9.3
2018-Feb-13 07:26N 36°34' E 014°10'4 9.5
2018-Feb-13 07:00N 36°37' E 014°07'5 9.4
2018-Feb-13 06:29N 36°40' E 014°03'273 9.9
2018-Feb-12 02:50N 38°40' E 008°53'410.1
2018-Feb-12 02:26N 38°41' E 008°48'410.1
2018-Feb-12 01:59N 38°43' E 008°42'31410.0
2018-Feb-10 18:31N 43°09' E 005°03'111.2
2018-Feb-10 18:28N 43°10' E 005°03'511.2
2018-Feb-10 18:00N 43°14' E 005°00'510.8
2018-Feb-10 17:30N 43°20' E 004°58'5 9.7
2018-Feb-10 17:00N 43°24' E 004°55'4 0.2
2018-Feb-10 01:57N 43°25' E 004°50'1 1.2
2018-Feb-10 01:30N 43°25' E 004°51'4 7.4
2018-Feb-10 01:00N 43°24' E 004°56'4 7.3
2018-Feb-10 00:30N 43°21' E 004°59'2 4.6
2018-Feb-10 00:00N 43°19' E 004°60'3 6.1
2018-Feb-09 23:30N 43°16' E 005°01'  

Dump ship's entire track history